FOOG

Details ICAO FOOG (POG)
Name Port Gentil
Region Gabon
Timezone Africa/Libreville (UTC+1.0)
Plans Departing 59
Arriving 61
Stats Elevation 13 ft / 4 m (AMSL)
Location -0.711739° 8.754380°
Runways 1
Magnetic Variation 2.194° W
Sunrise 2019-08-24 05:26:09 UTC / 2019-08-24 06:26:09 Local
Sunset 2019-08-24 17:31:48 UTC / 2019-08-24 18:31:48 Local
Advertisement - Login to hide

Runways

ID Width Length Bearing (true/mag) Surface Threshold Overrun Markings Lighting
03 148 ft / 45 m 6,265 ft / 1,910 m 22.17° / 24.37° ASPHALT 0 ft / 0 m 0 ft / 0 m APP CENTERLINE EDGE THRESHOLD
21 148 ft / 45 m 6,265 ft / 1,910 m 202.17° / 204.37° ASPHALT 0 ft / 0 m 197 ft / 60 m APP CENTERLINE EDGE THRESHOLD

Map

Weather


0- 5 10 15 20 25 30 35+ Temperature / °C

Clouds and Precipitation
Forecast for 2019-08-24 18:00 UTC. Updated 4 hours ago

Ground ~20,000 ft ~40,000 ft Winds

METAR

FOOG 241900Z 16007KT 8000 FEW008 25/22 Q1015

TAF

TAF FOOG 241643Z 2418/2518 18007KT 9999 FEW010 PROB30 TEMPO 2505/2508 BKN008 OVC028

Frequencies

Tower 118.30 MHz
Warning: Do not use this data for real-world aviation or navigation. No guarantee of current accuracy is given.